Time;durP1;ratioP1;P1;durP2;ratioP2;P2;SDS_P1;SDS_P2;PMS_P1;PMS_P2;Temp;Humidity;BMP_temperature;BMP_pressure;BME280_temperature;BME280_humidity;BME280_pressure;Samples;Min_cycle;Max_cycle;Signal;HPM_P1;HPM_P2
2022/12/22 03:27:35;;;;;;;2.57;2.20;;;;;;;;;;5040837;28;20222;-27
2022/12/22 03:30:03;;;;;;;2.40;2.20;;;;;;;;;;5041473;28;20202;-27
2022/12/22 03:32:31;;;;;;;1.60;1.50;;;;;;;;;;5049063;28;20226;-28
2022/12/22 03:34:58;;;;;;;3.40;1.80;;;;;;;;;;5046359;28;20219;-25
2022/12/22 03:37:25;;;;;;;1.83;0.90;;;;;;;;;;5037550;28;20207;-28
2022/12/22 03:39:52;;;;;;;0.53;0.53;;;;;;;;;;5046425;28;20198;-27
2022/12/22 03:47:52;;;;;;;3.40;0.40;;;;;;;;;;5042614;28;20254;-29
2022/12/22 03:50:19;;;;;;;2.27;0.50;;;;;;;;;;5047681;28;20205;-26
2022/12/22 03:52:46;;;;;;;0.40;0.40;;;;;;;;;;5035737;28;20321;-27
2022/12/22 03:55:13;;;;;;;0.40;0.40;;;;;;;;;;5045675;28;20230;-27
2022/12/22 03:57:40;;;;;;;0.43;0.43;;;;;;;;;;5043081;28;20198;-24
2022/12/22 04:00:08;;;;;;;0.50;0.50;;;;;;;;;;5049322;28;20201;-28
2022/12/22 04:02:35;;;;;;;0.93;0.60;;;;;;;;;;5050534;28;20226;-28
2022/12/22 04:05:04;;;;;;;1.37;0.70;;;;;;;;;;5040778;28;20199;-28
2022/12/22 04:07:31;;;;;;;1.03;0.70;;;;;;;;;;5040946;28;20197;-28
2022/12/22 04:12:54;;;;;;;3.10;1.37;;;;;;;;;;5044882;28;20205;-27
2022/12/22 04:15:22;;;;;;;1.30;1.20;;;;;;;;;;5046747;28;20206;-26
2022/12/22 04:17:49;;;;;;;1.30;1.13;;;;;;;;;;5047835;28;20285;-28
2022/12/22 04:20:17;;;;;;;0.80;0.80;;;;;;;;;;5039458;28;20530;-28
2022/12/22 04:22:44;;;;;;;3.97;1.00;;;;;;;;;;5035027;28;20210;-26
2022/12/22 04:25:12;;;;;;;1.57;0.90;;;;;;;;;;5048238;28;20217;-27
2022/12/22 04:27:39;;;;;;;0.70;0.70;;;;;;;;;;5032823;28;20221;-24
2022/12/22 04:30:09;;;;;;;0.70;0.70;;;;;;;;;;5035734;28;20202;-25
2022/12/22 04:32:36;;;;;;;0.67;0.67;;;;;;;;;;5047909;28;20222;-28
2022/12/22 04:35:04;;;;;;;0.60;0.60;;;;;;;;;;5026577;28;20215;-28
2022/12/22 04:37:32;;;;;;;2.47;0.70;;;;;;;;;;5037873;28;20205;-26
2022/12/22 04:39:59;;;;;;;1.07;0.40;;;;;;;;;;5039417;28;20198;-25
2022/12/22 04:42:27;;;;;;;1.53;0.60;;;;;;;;;;5036399;28;20284;-27
2022/12/22 04:44:54;;;;;;;0.50;0.50;;;;;;;;;;5046953;28;20225;-26
2022/12/22 04:47:21;;;;;;;1.23;0.60;;;;;;;;;;5047726;28;20255;-28
2022/12/22 04:49:48;;;;;;;1.60;0.90;;;;;;;;;;5045637;28;20233;-27
2022/12/22 04:52:15;;;;;;;1.70;0.73;;;;;;;;;;5040660;28;20236;-25
2022/12/22 04:54:43;;;;;;;0.60;0.60;;;;;;;;;;5046826;28;20198;-26
2022/12/22 04:57:11;;;;;;;0.73;0.73;;;;;;;;;;5028857;28;20202;-27
2022/12/22 04:59:38;;;;;;;1.00;0.70;;;;;;;;;;5033222;28;20202;-24
2022/12/22 05:02:05;;;;;;;0.67;0.67;;;;;;;;;;5046158;28;20230;-26
2022/12/22 05:04:32;;;;;;;0.67;0.67;;;;;;;;;;5035704;28;20198;-26
2022/12/22 05:06:59;;;;;;;1.63;1.00;;;;;;;;;;5031022;28;20203;-25
2022/12/22 05:09:26;;;;;;;0.50;0.50;;;;;;;;;;5044712;28;20430;-27
2022/12/22 05:11:55;;;;;;;0.60;0.60;;;;;;;;;;5040112;28;20727;-28
2022/12/22 05:14:22;;;;;;;0.90;0.90;;;;;;;;;;5043139;28;20205;-25
2022/12/22 05:16:49;;;;;;;1.60;0.93;;;;;;;;;;5046855;28;20214;-28
2022/12/22 05:19:16;;;;;;;1.40;0.90;;;;;;;;;;5046286;28;20193;-28
2022/12/22 05:21:44;;;;;;;0.80;0.80;;;;;;;;;;5041760;28;20218;-26
2022/12/22 05:24:12;;;;;;;2.57;0.90;;;;;;;;;;5045098;28;20205;-28
2022/12/22 05:26:39;;;;;;;1.93;0.63;;;;;;;;;;5039783;28;20213;-27
2022/12/22 05:29:08;;;;;;;1.33;0.90;;;;;;;;;;5042071;28;20212;-26
2022/12/22 05:31:36;;;;;;;2.97;1.17;;;;;;;;;;5046276;28;20230;-29
2022/12/22 05:34:03;;;;;;;3.20;0.90;;;;;;;;;;5047067;28;20378;-26
2022/12/22 05:36:30;;;;;;;2.53;0.93;;;;;;;;;;5039640;28;20237;-27
2022/12/22 05:38:57;;;;;;;3.50;0.80;;;;;;;;;;5045887;28;20435;-28
2022/12/22 05:41:24;;;;;;;5.83;0.77;;;;;;;;;;5041888;28;20811;-26
2022/12/22 05:43:51;;;;;;;1.67;0.90;;;;;;;;;;5041938;28;20202;-31
2022/12/22 05:46:21;;;;;;;4.90;1.17;;;;;;;;;;5047223;28;20194;-28
2022/12/22 05:48:48;;;;;;;1.83;1.03;;;;;;;;;;5046743;28;20202;-27
2022/12/22 05:51:15;;;;;;;6.73;1.10;;;;;;;;;;5039362;28;20240;-30
2022/12/22 05:53:42;;;;;;;1.40;0.90;;;;;;;;;;5041772;28;20419;-27
2022/12/22 05:56:10;;;;;;;2.23;1.63;;;;;;;;;;5043265;28;20225;-28
2022/12/22 05:58:38;;;;;;;3.83;1.20;;;;;;;;;;5030680;28;20202;-28
2022/12/22 06:01:06;;;;;;;8.40;1.17;;;;;;;;;;5046233;28;20214;-27
2022/12/22 06:03:34;;;;;;;4.40;0.90;;;;;;;;;;5047332;28;20213;-27
2022/12/22 06:06:01;;;;;;;3.00;1.13;;;;;;;;;;5038511;28;20208;-28
2022/12/22 06:08:29;;;;;;;6.03;1.23;;;;;;;;;;5042974;28;20202;-26
2022/12/22 06:10:58;;;;;;;3.90;1.20;;;;;;;;;;5049278;28;20233;-26
2022/12/22 06:13:26;;;;;;;6.50;1.27;;;;;;;;;;5038668;28;20228;-27
2022/12/22 06:15:53;;;;;;;2.87;0.87;;;;;;;;;;5045033;28;20221;-29
2022/12/22 06:18:20;;;;;;;4.37;1.00;;;;;;;;;;5048274;28;20206;-30
2022/12/22 06:20:51;;;;;;;6.87;1.60;;;;;;;;;;5045993;28;20252;-28
2022/12/22 06:23:18;;;;;;;8.67;1.13;;;;;;;;;;5031840;28;20230;-26
2022/12/22 06:25:53;;;;;;;2.87;1.10;;;;;;;;;;5044308;28;20195;-28
2022/12/22 06:28:20;;;;;;;5.63;1.30;;;;;;;;;;5040922;28;20202;-29
2022/12/22 06:30:48;;;;;;;2.30;0.90;;;;;;;;;;5045964;28;20232;-26
2022/12/22 06:33:15;;;;;;;3.57;1.10;;;;;;;;;;5045693;28;20206;-27
2022/12/22 06:35:42;;;;;;;7.83;0.90;;;;;;;;;;5041986;28;20658;-28
2022/12/22 06:38:10;;;;;;;7.20;1.30;;;;;;;;;;5041294;28;20206;-27
2022/12/22 06:40:37;;;;;;;4.10;1.40;;;;;;;;;;5043673;28;20224;-26
2022/12/22 06:43:10;;;;;;;5.50;0.93;;;;;;;;;;5040996;28;20206;-27
2022/12/22 06:45:37;;;;;;;3.13;1.10;;;;;;;;;;5045096;28;20629;-29
2022/12/22 06:48:05;;;;;;;4.40;1.27;;;;;;;;;;5047391;28;20213;-27
2022/12/22 06:50:32;;;;;;;4.27;1.40;;;;;;;;;;5047961;28;20554;-27
2022/12/22 06:52:59;;;;;;;7.60;1.03;;;;;;;;;;5039790;28;20207;-28
2022/12/22 06:55:27;;;;;;;5.23;0.73;;;;;;;;;;5044739;28;20225;-29
2022/12/22 06:57:54;;;;;;;8.80;1.47;;;;;;;;;;5040887;28;20536;-27
2022/12/22 07:00:22;;;;;;;8.13;1.40;;;;;;;;;;5049338;28;20206;-26
2022/12/22 07:02:49;;;;;;;3.90;1.47;;;;;;;;;;5047687;28;20309;-27
2022/12/22 07:05:16;;;;;;;2.20;0.80;;;;;;;;;;5047844;28;20233;-27
2022/12/22 07:07:43;;;;;;;5.17;1.87;;;;;;;;;;5037292;28;20231;-26
2022/12/22 07:10:11;;;;;;;5.57;1.53;;;;;;;;;;5034632;28;20209;-28
2022/12/22 07:12:39;;;;;;;6.90;1.67;;;;;;;;;;5044370;28;20222;-28
2022/12/22 07:15:07;;;;;;;9.10;1.10;;;;;;;;;;5046985;28;20199;-26
2022/12/22 07:17:34;;;;;;;10.50;1.50;;;;;;;;;;5048181;28;20228;-27
2022/12/22 07:20:01;;;;;;;7.27;1.17;;;;;;;;;;5046639;28;20218;-29
2022/12/22 07:22:28;;;;;;;9.67;1.70;;;;;;;;;;5028442;28;20305;-27
2022/12/22 07:24:55;;;;;;;6.37;1.33;;;;;;;;;;5047558;28;20224;-27
2022/12/22 07:27:23;;;;;;;8.03;1.23;;;;;;;;;;5039993;28;20194;-29
2022/12/22 07:29:51;;;;;;;8.73;1.93;;;;;;;;;;5048647;28;20206;-26
2022/12/22 07:32:18;;;;;;;5.10;0.97;;;;;;;;;;5049107;28;20229;-29
2022/12/22 07:34:45;;;;;;;6.80;1.37;;;;;;;;;;5046237;28;20582;-27
2022/12/22 07:37:13;;;;;;;4.47;1.40;;;;;;;;;;5046319;28;20247;-28
2022/12/22 07:39:40;;;;;;;1.87;1.27;;;;;;;;;;5052008;28;20252;-27
2022/12/22 07:44:53;;;;;;;5.93;1.37;;;;;;;;;;5046662;28;20283;-26
2022/12/22 07:47:20;;;;;;;5.07;1.13;;;;;;;;;;5051535;28;20202;-28
2022/12/22 07:52:34;;;;;;;5.27;1.47;;;;;;;;;;5009900;28;20224;-26
2022/12/22 07:55:01;;;;;;;12.03;1.63;;;;;;;;;;5046260;28;20209;-28
2022/12/22 07:57:28;;;;;;;6.33;1.17;;;;;;;;;;5047620;28;20722;-28
2022/12/22 07:59:57;;;;;;;4.80;1.00;;;;;;;;;;5049857;28;20228;-26
2022/12/22 08:02:24;;;;;;;6.27;1.53;;;;;;;;;;5052134;28;20225;-27
2022/12/22 08:04:51;;;;;;;5.17;1.50;;;;;;;;;;5051139;28;20212;-25
2022/12/22 08:07:18;;;;;;;6.37;1.60;;;;;;;;;;5034940;28;20522;-28
2022/12/22 08:09:45;;;;;;;5.60;1.37;;;;;;;;;;5043433;28;20239;-27
2022/12/22 08:12:12;;;;;;;5.17;1.33;;;;;;;;;;5038785;28;20229;-27
2022/12/22 08:14:39;;;;;;;2.43;0.90;;;;;;;;;;5051616;28;20445;-27
2022/12/22 08:17:08;;;;;;;5.93;1.33;;;;;;;;;;5051433;28;20229;-26
2022/12/22 08:19:35;;;;;;;7.63;1.40;;;;;;;;;;5049221;28;20202;-28
2022/12/22 08:22:02;;;;;;;7.50;1.93;;;;;;;;;;5042763;28;20245;-27
2022/12/22 08:24:29;;;;;;;7.83;1.57;;;;;;;;;;5048856;28;20744;-26
2022/12/22 08:26:58;;;;;;;4.23;1.03;;;;;;;;;;5048165;28;20210;-26
2022/12/22 08:29:28;;;;;;;9.30;1.37;;;;;;;;;;5046389;28;20217;-28
2022/12/22 08:31:56;;;;;;;5.40;1.30;;;;;;;;;;5051396;28;20214;-28
2022/12/22 08:34:24;;;;;;;6.27;1.03;;;;;;;;;;5042836;28;20206;-28
2022/12/22 08:36:55;;;;;;;7.40;1.70;;;;;;;;;;5050266;28;20228;-28
2022/12/22 08:39:23;;;;;;;6.57;1.83;;;;;;;;;;5045468;28;20202;-26
2022/12/22 08:41:50;;;;;;;6.17;1.77;;;;;;;;;;5047858;28;20229;-27
2022/12/22 08:44:18;;;;;;;8.60;1.33;;;;;;;;;;5043254;28;20202;-26
2022/12/22 08:46:45;;;;;;;10.27;2.03;;;;;;;;;;5043473;28;20198;-27
2022/12/22 08:49:12;;;;;;;4.03;1.20;;;;;;;;;;5045229;28;20206;-28
2022/12/22 08:51:40;;;;;;;2.80;1.07;;;;;;;;;;5041328;28;20433;-29
2022/12/22 08:54:08;;;;;;;3.57;1.20;;;;;;;;;;5045418;28;20708;-29
2022/12/22 08:56:35;;;;;;;6.97;1.63;;;;;;;;;;5040946;28;20215;-25
2022/12/22 08:59:04;;;;;;;2.00;1.00;;;;;;;;;;5050018;28;20891;-27
2022/12/22 09:01:31;;;;;;;2.60;0.87;;;;;;;;;;5050674;28;20224;-27
2022/12/22 09:03:59;;;;;;;5.80;1.67;;;;;;;;;;5050318;28;20221;-28
2022/12/22 09:06:26;;;;;;;5.13;1.23;;;;;;;;;;5044641;28;20209;-28
2022/12/22 09:08:56;;;;;;;2.53;1.00;;;;;;;;;;5046940;28;20213;-25
2022/12/22 09:11:23;;;;;;;0.90;0.60;;;;;;;;;;5039457;28;20230;-30
2022/12/22 09:13:51;;;;;;;3.03;0.80;;;;;;;;;;5036688;28;20199;-27
2022/12/22 09:24:00;;;;;;;2.03;0.90;;;;;;;;;;5029144;28;20222;-29
2022/12/22 09:26:28;;;;;;;1.97;0.97;;;;;;;;;;5019635;28;20199;-28
2022/12/22 09:28:56;;;;;;;3.80;0.80;;;;;;;;;;5029952;28;20202;-28
2022/12/22 09:31:24;;;;;;;1.33;0.87;;;;;;;;;;5031955;28;20313;-29
2022/12/22 09:33:51;;;;;;;2.67;1.00;;;;;;;;;;5032520;28;20210;-27
2022/12/22 09:36:19;;;;;;;5.27;1.20;;;;;;;;;;5022294;28;20233;-26
2022/12/22 09:38:47;;;;;;;3.03;0.97;;;;;;;;;;5020846;28;20285;-26
2022/12/22 09:41:18;;;;;;;4.37;1.00;;;;;;;;;;5029108;28;20230;-27
2022/12/22 09:43:45;;;;;;;4.63;1.30;;;;;;;;;;5027746;28;20210;-27
2022/12/22 09:46:16;;;;;;;8.00;1.37;;;;;;;;;;5030295;28;20206;-26
2022/12/22 09:48:43;;;;;;;3.47;1.33;;;;;;;;;;5030105;28;20241;-26
2022/12/22 09:51:12;;;;;;;1.93;1.07;;;;;;;;;;5027280;28;20249;-25
2022/12/22 09:53:39;;;;;;;5.20;0.93;;;;;;;;;;5024416;28;20237;-26
2022/12/22 09:56:06;;;;;;;1.87;0.83;;;;;;;;;;5028142;28;20210;-31
2022/12/22 09:58:35;;;;;;;3.73;0.93;;;;;;;;;;5020594;28;20217;-26
2022/12/22 10:01:07;;;;;;;2.23;1.00;;;;;;;;;;5030232;28;20214;-27
2022/12/22 10:03:40;;;;;;;3.43;1.00;;;;;;;;;;5030796;28;20198;-26
2022/12/22 10:06:11;;;;;;;4.60;1.40;;;;;;;;;;5023599;28;20207;-27
2022/12/22 10:08:40;;;;;;;2.97;1.03;;;;;;;;;;5025532;28;20202;-27
2022/12/22 10:11:08;;;;;;;4.13;1.03;;;;;;;;;;5022424;28;20222;-26
2022/12/22 10:13:37;;;;;;;5.53;1.10;;;;;;;;;;5026667;28;20290;-26
2022/12/22 10:16:16;;;;;;;3.53;1.20;;;;;;;;;;5029920;28;20214;-27
2022/12/22 10:18:54;;;;;;;4.97;1.30;;;;;;;;;;5030429;28;20190;-28
2022/12/22 10:21:22;;;;;;;5.13;1.20;;;;;;;;;;5024682;28;20712;-28
2022/12/22 10:23:49;;;;;;;8.67;1.20;;;;;;;;;;5017601;28;20219;-26
2022/12/22 10:26:19;;;;;;;4.63;1.60;;;;;;;;;;5029229;28;20206;-30
2022/12/22 10:28:48;;;;;;;3.00;1.00;;;;;;;;;;5026530;28;20206;-26
2022/12/22 10:31:17;;;;;;;3.20;1.30;;;;;;;;;;5031586;28;20218;-28
2022/12/22 10:33:45;;;;;;;6.03;1.47;;;;;;;;;;5031403;28;20212;-28
2022/12/22 10:36:13;;;;;;;5.93;1.50;;;;;;;;;;5025322;28;20203;-27
2022/12/22 10:38:41;;;;;;;8.37;1.40;;;;;;;;;;5023394;28;20207;-28
2022/12/22 10:41:14;;;;;;;7.90;1.60;;;;;;;;;;5026677;28;20222;-26
2022/12/22 10:43:46;;;;;;;6.13;1.77;;;;;;;;;;5022641;28;20205;-27
2022/12/22 10:46:15;;;;;;;3.77;1.20;;;;;;;;;;5031046;28;20193;-25
2022/12/22 10:48:42;;;;;;;5.70;1.27;;;;;;;;;;5028633;28;20778;-29
2022/12/22 10:51:10;;;;;;;5.17;1.40;;;;;;;;;;5024255;28;20229;-27
2022/12/22 10:53:42;;;;;;;5.17;1.27;;;;;;;;;;5021804;28;20573;-26
2022/12/22 10:56:13;;;;;;;1.67;1.07;;;;;;;;;;5028234;28;20191;-27
2022/12/22 10:58:47;;;;;;;2.47;1.10;;;;;;;;;;5022591;28;20215;-26
2022/12/22 11:01:23;;;;;;;4.53;1.77;;;;;;;;;;5029338;28;20222;-27
2022/12/22 11:03:50;;;;;;;8.13;1.23;;;;;;;;;;5029260;28;20206;-26
2022/12/22 11:06:17;;;;;;;2.83;1.00;;;;;;;;;;5021560;28;20672;-26
2022/12/22 11:08:44;;;;;;;4.43;1.20;;;;;;;;;;5021557;28;20289;-27
2022/12/22 11:11:15;;;;;;;4.00;0.87;;;;;;;;;;5026697;28;20228;-28
2022/12/22 11:13:47;;;;;;;5.73;1.20;;;;;;;;;;5024755;28;20198;-28
2022/12/22 11:16:19;;;;;;;6.57;1.23;;;;;;;;;;5033283;28;20848;-27
2022/12/22 11:18:54;;;;;;;5.13;1.50;;;;;;;;;;5032910;28;20725;-26
2022/12/22 11:21:23;;;;;;;2.00;0.67;;;;;;;;;;5021535;28;20695;-28
2022/12/22 11:23:54;;;;;;;2.40;1.30;;;;;;;;;;5018691;28;20230;-28
2022/12/22 11:26:27;;;;;;;4.40;1.40;;;;;;;;;;5013078;28;20875;-24
2022/12/22 11:29:00;;;;;;;7.03;1.37;;;;;;;;;;5026135;28;20198;-27
2022/12/22 11:31:35;;;;;;;4.33;1.53;;;;;;;;;;5032974;28;20715;-26
2022/12/22 11:34:08;;;;;;;8.10;1.50;;;;;;;;;;5033547;28;20242;-30
2022/12/22 11:36:40;;;;;;;7.17;1.53;;;;;;;;;;5021218;28;20480;-26
2022/12/22 11:39:08;;;;;;;4.47;1.30;;;;;;;;;;5026706;28;20211;-28
2022/12/22 11:41:43;;;;;;;2.57;0.73;;;;;;;;;;5026121;28;20233;-27
2022/12/22 11:44:17;;;;;;;7.63;1.73;;;;;;;;;;5027889;28;20285;-27
2022/12/22 11:46:48;;;;;;;4.37;1.13;;;;;;;;;;5033021;28;20205;-28
2022/12/22 11:49:23;;;;;;;6.20;1.00;;;;;;;;;;5032740;28;20206;-28
2022/12/22 11:52:08;;;;;;;3.00;1.37;;;;;;;;;;5023509;28;20224;-28
2022/12/22 11:54:46;;;;;;;5.83;1.47;;;;;;;;;;5031029;28;20198;-25
2022/12/22 11:57:19;;;;;;;3.80;1.10;;;;;;;;;;5027937;28;20233;-28
2022/12/22 11:59:50;;;;;;;4.77;1.03;;;;;;;;;;5024982;28;20919;-28
2022/12/22 12:02:28;;;;;;;8.67;1.80;;;;;;;;;;5031787;28;20262;-28
2022/12/22 12:05:12;;;;;;;3.30;1.10;;;;;;;;;;5026082;28;20711;-28
2022/12/22 12:07:42;;;;;;;4.87;1.53;;;;;;;;;;5029793;28;20218;-27
2022/12/22 12:10:15;;;;;;;7.00;1.43;;;;;;;;;;5029923;28;20296;-29
2022/12/22 12:12:47;;;;;;;1.90;1.13;;;;;;;;;;5028297;28;20199;-25
2022/12/22 12:15:23;;;;;;;5.53;1.63;;;;;;;;;;5031620;28;20207;-26
2022/12/22 12:17:58;;;;;;;3.90;1.07;;;;;;;;;;5012923;28;20641;-29
2022/12/22 12:20:30;;;;;;;6.87;1.13;;;;;;;;;;5011775;28;20661;-26
2022/12/22 12:23:04;;;;;;;1.93;0.83;;;;;;;;;;5029961;28;20211;-27
2022/12/22 12:25:34;;;;;;;5.47;1.43;;;;;;;;;;5029345;28;20680;-27
2022/12/22 12:28:07;;;;;;;5.57;1.33;;;;;;;;;;5020539;28;20198;-27
2022/12/22 12:30:36;;;;;;;9.60;1.33;;;;;;;;;;5028967;28;20210;-26
2022/12/22 12:33:08;;;;;;;4.53;1.50;;;;;;;;;;5031816;28;20218;-26
2022/12/22 12:35:42;;;;;;;6.53;1.20;;;;;;;;;;5028313;28;20586;-27
2022/12/22 12:38:12;;;;;;;4.47;0.90;;;;;;;;;;5025993;28;20221;-28
2022/12/22 12:40:44;;;;;;;1.70;0.50;;;;;;;;;;5030377;28;20589;-25
2022/12/22 12:43:12;;;;;;;4.20;1.30;;;;;;;;;;5026858;28;20696;-27
2022/12/22 12:45:41;;;;;;;4.27;1.20;;;;;;;;;;5030252;28;20213;-26
2022/12/22 12:48:27;;;;;;;2.47;0.97;;;;;;;;;;5031296;28;20748;-26
2022/12/22 12:50:56;;;;;;;6.30;1.37;;;;;;;;;;5023104;28;20230;-28
2022/12/22 12:53:24;;;;;;;6.03;1.10;;;;;;;;;;5025697;28;20257;-27
2022/12/22 12:56:05;;;;;;;3.47;0.80;;;;;;;;;;5030836;28;20225;-27
2022/12/22 12:58:49;;;;;;;1.43;1.10;;;;;;;;;;5021901;28;20633;-27
2022/12/22 13:01:31;;;;;;;2.47;0.90;;;;;;;;;;5027724;28;20261;-27
2022/12/22 13:03:58;;;;;;;3.87;1.20;;;;;;;;;;5023930;28;20293;-26
2022/12/22 13:06:40;;;;;;;2.97;1.17;;;;;;;;;;5030657;28;20194;-27
2022/12/22 13:09:19;;;;;;;3.17;0.97;;;;;;;;;;5029737;28;20213;-26
2022/12/22 13:11:47;;;;;;;3.87;0.90;;;;;;;;;;5022922;28;20682;-28
2022/12/22 13:14:29;;;;;;;3.33;1.07;;;;;;;;;;5027947;28;20198;-28
2022/12/22 13:17:16;;;;;;;4.30;1.33;;;;;;;;;;5029348;28;20237;-28
2022/12/22 13:19:45;;;;;;;3.70;1.10;;;;;;;;;;5030673;28;20198;-28
2022/12/22 13:22:12;;;;;;;3.60;1.03;;;;;;;;;;5013750;28;20235;-26
2022/12/22 13:24:44;;;;;;;4.87;1.33;;;;;;;;;;5029638;28;20203;-29
2022/12/22 13:27:12;;;;;;;3.60;1.20;;;;;;;;;;5021268;28;20277;-28
2022/12/22 13:29:44;;;;;;;8.27;1.10;;;;;;;;;;5029073;28;20206;-26
2022/12/22 13:32:23;;;;;;;7.63;1.50;;;;;;;;;;5023477;28;20219;-27
2022/12/22 13:34:54;;;;;;;6.77;1.60;;;;;;;;;;5010435;28;20224;-30
2022/12/22 13:37:23;;;;;;;8.30;1.47;;;;;;;;;;5015444;28;20761;-26
2022/12/22 13:40:11;;;;;;;9.47;1.43;;;;;;;;;;5029732;28;20206;-28
2022/12/22 13:42:40;;;;;;;7.60;1.63;;;;;;;;;;5015340;28;20226;-28
2022/12/22 13:45:12;;;;;;;6.63;1.33;;;;;;;;;;5031068;28;20203;-27
2022/12/22 13:47:41;;;;;;;7.77;1.13;;;;;;;;;;5031921;28;20278;-27
2022/12/22 13:50:10;;;;;;;5.53;1.67;;;;;;;;;;5023301;28;20204;-27
2022/12/22 13:52:37;;;;;;;6.77;1.67;;;;;;;;;;5027564;28;20230;-28
2022/12/22 13:55:04;;;;;;;4.60;1.07;;;;;;;;;;5028599;28;20209;-29
2022/12/22 13:57:33;;;;;;;8.00;1.57;;;;;;;;;;5017730;28;20301;-27
2022/12/22 14:00:00;;;;;;;8.27;1.80;;;;;;;;;;5023748;28;20673;-27
2022/12/22 14:02:32;;;;;;;3.77;1.23;;;;;;;;;;5028588;28;20252;-27
2022/12/22 14:05:04;;;;;;;6.17;1.03;;;;;;;;;;5030000;28;20202;-26
2022/12/22 14:07:31;;;;;;;4.00;1.03;;;;;;;;;;5023688;28;20666;-28
2022/12/22 14:09:58;;;;;;;6.23;1.00;;;;;;;;;;5028562;28;20202;-27
2022/12/22 14:12:27;;;;;;;8.50;1.27;;;;;;;;;;5024873;28;20226;-29
2022/12/22 14:14:56;;;;;;;9.97;1.80;;;;;;;;;;5030988;28;20199;-27
2022/12/22 14:17:26;;;;;;;3.80;1.00;;;;;;;;;;5031587;28;20826;-26
2022/12/22 14:19:55;;;;;;;7.30;1.37;;;;;;;;;;5030509;28;20293;-26
2022/12/22 14:22:23;;;;;;;5.83;1.23;;;;;;;;;;5025377;28;20238;-29
2022/12/22 14:24:53;;;;;;;7.40;1.70;;;;;;;;;;5030574;28;20195;-28
2022/12/22 14:27:32;;;;;;;9.07;1.40;;;;;;;;;;5021660;28;20206;-26
2022/12/22 14:30:02;;;;;;;4.33;1.50;;;;;;;;;;5024809;28;20264;-28
2022/12/22 14:32:39;;;;;;;7.93;1.53;;;;;;;;;;5028744;28;20281;-27
2022/12/22 14:35:16;;;;;;;8.97;1.57;;;;;;;;;;5014092;28;20293;-28
2022/12/22 14:37:43;;;;;;;8.23;1.90;;;;;;;;;;5024518;28;20213;-28
2022/12/22 14:40:15;;;;;;;9.20;1.37;;;;;;;;;;5027082;28;20205;-26
2022/12/22 14:42:43;;;;;;;9.17;1.80;;;;;;;;;;5016332;28;20199;-28
2022/12/22 14:45:16;;;;;;;11.63;4.20;;;;;;;;;;5029042;28;20202;-26
2022/12/22 14:47:43;;;;;;;25.30;14.63;;;;;;;;;;5011785;28;20241;-28
2022/12/22 14:50:15;;;;;;;4.40;2.47;;;;;;;;;;5019533;28;20550;-26
2022/12/22 14:52:44;;;;;;;6.67;2.60;;;;;;;;;;5029737;28;20195;-26
2022/12/22 14:55:23;;;;;;;5.70;2.07;;;;;;;;;;5030342;28;20266;-27
2022/12/22 14:57:53;;;;;;;6.70;1.97;;;;;;;;;;5023919;28;20199;-28
2022/12/22 15:00:32;;;;;;;6.53;1.90;;;;;;;;;;5026678;28;20211;-29
2022/12/22 15:03:01;;;;;;;9.57;2.63;;;;;;;;;;5016863;28;20637;-27
2022/12/22 15:05:30;;;;;;;9.73;1.50;;;;;;;;;;5027328;28;20203;-28
2022/12/22 15:07:58;;;;;;;8.30;2.30;;;;;;;;;;5029546;28;20210;-26
2022/12/22 15:10:26;;;;;;;5.17;1.53;;;;;;;;;;5023978;28;20680;-29
2022/12/22 15:12:57;;;;;;;5.70;1.63;;;;;;;;;;5008669;28;20206;-28
2022/12/22 15:15:24;;;;;;;8.77;2.00;;;;;;;;;;5013692;28;20211;-25
2022/12/22 15:17:54;;;;;;;8.90;2.63;;;;;;;;;;5014805;28;21188;-27
2022/12/22 15:20:22;;;;;;;8.20;2.00;;;;;;;;;;5015135;28;20218;-26
2022/12/22 15:22:49;;;;;;;10.17;2.00;;;;;;;;;;5008453;28;20225;-26
2022/12/22 15:25:18;;;;;;;6.53;1.70;;;;;;;;;;5016802;28;20214;-28
2022/12/22 15:27:45;;;;;;;3.47;1.07;;;;;;;;;;5011096;28;20669;-27
2022/12/22 15:30:14;;;;;;;9.10;1.93;;;;;;;;;;5011436;28;20206;-29
2022/12/22 15:32:41;;;;;;;7.67;2.00;;;;;;;;;;5021140;28;20207;-27
2022/12/22 15:35:29;;;;;;;7.13;1.97;;;;;;;;;;5023750;28;20199;-27
2022/12/22 15:37:57;;;;;;;5.93;1.87;;;;;;;;;;5015092;28;20210;-29
2022/12/22 15:40:25;;;;;;;5.67;1.53;;;;;;;;;;5028813;28;20302;-26
2022/12/22 15:42:52;;;;;;;5.23;1.40;;;;;;;;;;5016993;28;20207;-29
2022/12/22 15:45:20;;;;;;;9.70;1.93;;;;;;;;;;5026811;28;20203;-27
2022/12/22 15:47:49;;;;;;;11.20;2.13;;;;;;;;;;5029177;28;20636;-28
2022/12/22 15:50:18;;;;;;;8.10;2.13;;;;;;;;;;5016320;28;20203;-28
2022/12/22 15:52:48;;;;;;;9.07;1.80;;;;;;;;;;5016175;28;20712;-27
2022/12/22 15:55:17;;;;;;;7.00;1.10;;;;;;;;;;5026718;28;20225;-29
2022/12/22 15:57:44;;;;;;;5.53;2.20;;;;;;;;;;5018193;28;20203;-26
2022/12/22 16:00:15;;;;;;;6.90;2.00;;;;;;;;;;5025765;28;20222;-27
2022/12/22 16:02:42;;;;;;;7.20;1.67;;;;;;;;;;5016455;28;20207;-29
2022/12/22 16:05:10;;;;;;;7.23;1.77;;;;;;;;;;5026008;28;20210;-28
2022/12/22 16:07:37;;;;;;;10.03;2.20;;;;;;;;;;5012362;28;20215;-28
2022/12/22 16:10:06;;;;;;;5.50;1.33;;;;;;;;;;5026624;28;20565;-29
2022/12/22 16:12:36;;;;;;;8.50;1.83;;;;;;;;;;5017528;28;20223;-27
2022/12/22 16:15:03;;;;;;;8.00;2.47;;;;;;;;;;5027313;28;20234;-29
2022/12/22 16:17:31;;;;;;;6.07;1.70;;;;;;;;;;5015240;28;20602;-29
2022/12/22 16:19:59;;;;;;;11.83;2.33;;;;;;;;;;5013857;28;20322;-26
2022/12/22 16:22:31;;;;;;;9.47;2.97;;;;;;;;;;5016349;28;20644;-30
2022/12/22 16:24:59;;;;;;;13.13;3.30;;;;;;;;;;5013976;28;20703;-26
2022/12/22 16:27:26;;;;;;;11.03;3.20;;;;;;;;;;5011441;28;20249;-26
2022/12/22 16:29:55;;;;;;;7.33;2.60;;;;;;;;;;5024294;28;20662;-30
2022/12/22 16:32:25;;;;;;;12.17;2.90;;;;;;;;;;5025244;28;20580;-28
2022/12/22 16:34:52;;;;;;;9.87;2.33;;;;;;;;;;5037866;28;20293;-28
2022/12/22 16:37:19;;;;;;;6.47;2.20;;;;;;;;;;5022729;28;20199;-30
2022/12/22 16:39:47;;;;;;;12.80;2.60;;;;;;;;;;5028707;28;20227;-28
2022/12/22 16:42:15;;;;;;;14.57;2.93;;;;;;;;;;5011561;28;20230;-29
2022/12/22 16:44:43;;;;;;;10.33;3.00;;;;;;;;;;5027441;28;20231;-27
2022/12/22 16:47:15;;;;;;;7.13;2.43;;;;;;;;;;5018581;28;20258;-28
2022/12/22 16:49:44;;;;;;;14.13;2.60;;;;;;;;;;5029967;28;20606;-27
2022/12/22 16:52:17;;;;;;;14.17;3.00;;;;;;;;;;5016634;28;20227;-28
2022/12/22 16:54:44;;;;;;;11.60;2.90;;;;;;;;;;5012249;28;20196;-28
2022/12/22 16:57:11;;;;;;;9.03;2.40;;;;;;;;;;5013113;28;20199;-29
2022/12/22 16:59:38;;;;;;;10.27;1.97;;;;;;;;;;5030726;28;20231;-29
2022/12/22 17:02:05;;;;;;;15.43;4.23;;;;;;;;;;5029080;28;20701;-29
2022/12/22 17:04:39;;;;;;;10.30;4.30;;;;;;;;;;5021749;28;20204;-27
2022/12/22 17:07:07;;;;;;;8.60;3.37;;;;;;;;;;5027192;28;20195;-28
2022/12/22 17:09:36;;;;;;;8.17;2.77;;;;;;;;;;5031924;28;20274;-27
2022/12/22 17:12:03;;;;;;;9.10;2.40;;;;;;;;;;5020941;28;20224;-28
2022/12/22 17:14:32;;;;;;;7.23;2.47;;;;;;;;;;5019559;28;20214;-26
2022/12/22 17:16:59;;;;;;;8.30;2.33;;;;;;;;;;5022054;28;20217;-29
2022/12/22 17:19:27;;;;;;;11.37;2.57;;;;;;;;;;5025262;28;20374;-30
2022/12/22 17:21:55;;;;;;;12.07;2.50;;;;;;;;;;5024855;28;20226;-26
2022/12/22 17:24:23;;;;;;;9.87;2.20;;;;;;;;;;5031240;28;20209;-28
2022/12/22 17:26:50;;;;;;;12.87;2.63;;;;;;;;;;5024900;28;20578;-27
2022/12/22 17:29:19;;;;;;;8.13;2.13;;;;;;;;;;5025793;28;20195;-27
2022/12/22 17:31:46;;;;;;;10.63;2.90;;;;;;;;;;5028799;28;20948;-27
2022/12/22 17:34:15;;;;;;;11.67;2.80;;;;;;;;;;5032106;28;20221;-29
2022/12/22 17:36:43;;;;;;;12.80;2.93;;;;;;;;;;5020957;28;20198;-30
2022/12/22 17:39:13;;;;;;;12.87;2.27;;;;;;;;;;5024465;28;20222;-29
2022/12/22 17:41:40;;;;;;;7.63;2.63;;;;;;;;;;5022941;28;20275;-26
2022/12/22 17:44:07;;;;;;;10.03;2.50;;;;;;;;;;5019357;28;20207;-31
2022/12/22 17:46:42;;;;;;;14.17;3.20;;;;;;;;;;5029046;28;20214;-27
2022/12/22 17:49:10;;;;;;;13.23;3.40;;;;;;;;;;5024579;28;20207;-29
2022/12/22 17:51:38;;;;;;;15.27;4.63;;;;;;;;;;5018887;28;20231;-27
2022/12/22 17:54:05;;;;;;;15.93;5.07;;;;;;;;;;5027268;28;20653;-29
2022/12/22 17:56:33;;;;;;;15.10;7.90;;;;;;;;;;5017737;28;20214;-28
2022/12/22 17:59:01;;;;;;;15.30;7.57;;;;;;;;;;5023072;28;20321;-29
2022/12/22 18:01:29;;;;;;;13.13;4.90;;;;;;;;;;5027308;28;20225;-29
2022/12/22 18:03:58;;;;;;;16.50;4.43;;;;;;;;;;5025623;28;20264;-27
2022/12/22 18:06:27;;;;;;;11.30;4.60;;;;;;;;;;5026065;28;20203;-28
2022/12/22 18:08:54;;;;;;;15.57;4.37;;;;;;;;;;5026235;28;20198;-29
2022/12/22 18:11:22;;;;;;;10.87;4.60;;;;;;;;;;5018475;28;20223;-29
2022/12/22 18:13:51;;;;;;;12.87;4.33;;;;;;;;;;5025765;28;20221;-28
2022/12/22 18:16:19;;;;;;;15.93;5.80;;;;;;;;;;5027796;28;20190;-27
2022/12/22 18:18:46;;;;;;;37.37;18.83;;;;;;;;;;5029520;28;20216;-28
2022/12/22 18:21:15;;;;;;;13.43;5.23;;;;;;;;;;5022455;28;20234;-29
2022/12/22 18:23:43;;;;;;;17.77;4.60;;;;;;;;;;5028587;28;20225;-26
2022/12/22 18:26:14;;;;;;;10.77;3.47;;;;;;;;;;5013032;28;20575;-30
2022/12/22 18:28:41;;;;;;;7.93;2.67;;;;;;;;;;5020577;28;20203;-27
2022/12/22 18:31:09;;;;;;;13.00;3.40;;;;;;;;;;5030208;28;20514;-27
2022/12/22 18:33:37;;;;;;;16.40;3.67;;;;;;;;;;5020450;28;20650;-26
2022/12/22 18:36:04;;;;;;;15.70;4.40;;;;;;;;;;5027057;28;20213;-29
2022/12/22 18:38:33;;;;;;;13.77;5.10;;;;;;;;;;5015937;28;20195;-27
2022/12/22 18:41:00;;;;;;;11.40;3.43;;;;;;;;;;5013593;28;20250;-26